createdAt,value
2023-01-02T00:00:47.818Z,99.90
2023-01-02T00:01:50.983Z,99.90
2023-01-02T00:02:53.726Z,99.90
2023-01-02T00:03:57.468Z,99.90
2023-01-02T00:05:00.158Z,99.90
2023-01-02T00:06:04.714Z,99.90
2023-01-02T00:07:07.288Z,99.90
2023-01-02T00:08:09.835Z,99.90
2023-01-02T00:09:12.386Z,99.90
2023-01-02T00:10:14.986Z,99.90
2023-01-02T00:11:17.551Z,99.90
2023-01-02T00:12:20.072Z,99.90
2023-01-02T00:13:22.639Z,99.90
2023-01-02T00:14:25.214Z,99.90
2023-01-02T00:15:27.817Z,99.90
2023-01-02T00:16:30.532Z,99.90
2023-01-02T00:17:33.156Z,99.90
2023-01-02T00:18:35.797Z,99.90
2023-01-02T00:19:38.340Z,99.90
2023-01-02T00:20:40.897Z,99.90
2023-01-02T00:21:43.646Z,99.90
2023-01-02T00:22:46.190Z,99.90
2023-01-02T00:23:48.733Z,99.90
2023-01-02T00:24:51.319Z,99.90
2023-01-02T00:25:53.900Z,99.90
2023-01-02T00:26:56.451Z,99.90
2023-01-02T00:27:59.035Z,99.90
2023-01-02T00:29:02.275Z,99.90
2023-01-02T00:30:05.298Z,99.90
2023-01-02T00:31:10.693Z,99.90
2023-01-02T00:32:13.299Z,99.90
2023-01-02T00:33:16.433Z,99.90
2023-01-02T00:34:18.973Z,99.90
2023-01-02T00:35:21.478Z,99.90
2023-01-02T00:36:24.092Z,99.90
2023-01-02T00:37:26.675Z,99.90
2023-01-02T00:38:29.209Z,99.90
2023-01-02T00:39:31.812Z,99.90
2023-01-02T00:40:35.065Z,99.90
2023-01-02T00:41:37.720Z,99.90
2023-01-02T00:42:41.865Z,99.90
2023-01-02T00:43:44.537Z,99.90
2023-01-02T00:44:47.138Z,99.90
2023-01-02T00:45:49.766Z,99.90
2023-01-02T00:46:52.378Z,99.90
2023-01-02T00:47:54.960Z,99.90
2023-01-02T00:48:57.513Z,99.90
2023-01-02T00:50:00.152Z,99.90
2023-01-02T00:51:02.763Z,99.90
2023-01-02T00:52:05.413Z,99.90
2023-01-02T00:53:07.924Z,99.90
2023-01-02T00:54:10.468Z,99.90
2023-01-02T00:55:13.081Z,99.90
2023-01-02T00:56:15.691Z,99.90
2023-01-02T00:57:18.425Z,99.90
2023-01-02T00:58:20.997Z,99.90
2023-01-02T00:59:23.569Z,99.90
2023-01-02T01:00:26.127Z,99.90
2023-01-02T01:01:29.074Z,99.90
2023-01-02T01:02:31.925Z,99.90
2023-01-02T01:03:34.589Z,99.90
2023-01-02T01:04:37.405Z,99.90
2023-01-02T01:05:43.048Z,99.90
2023-01-02T01:06:45.729Z,99.90
2023-01-02T01:07:48.290Z,99.90
2023-01-02T01:08:50.847Z,99.90
2023-01-02T01:09:53.401Z,99.90
2023-01-02T01:10:55.928Z,99.90
2023-01-02T01:12:00.112Z,99.90
2023-01-02T01:13:06.245Z,99.90
2023-01-02T01:14:08.825Z,99.90
2023-01-02T01:15:11.582Z,99.90
2023-01-02T01:16:17.593Z,99.90
2023-01-02T01:17:20.366Z,99.90
2023-01-02T01:18:22.882Z,99.90
2023-01-02T01:19:25.463Z,99.90
2023-01-02T01:20:28.162Z,99.90
2023-01-02T01:21:30.761Z,99.90
2023-01-02T01:22:33.444Z,99.90
2023-01-02T01:23:36.106Z,99.90
2023-01-02T01:24:38.953Z,99.90
2023-01-02T01:25:42.102Z,99.90
2023-01-02T01:26:44.644Z,99.90
2023-01-02T01:27:47.224Z,99.90
2023-01-02T01:28:53.493Z,99.90
2023-01-02T01:29:55.991Z,99.90
2023-01-02T01:31:08.008Z,99.90
2023-01-02T01:32:11.196Z,99.90
2023-01-02T01:33:13.730Z,99.90
2023-01-02T01:34:17.327Z,99.90
2023-01-02T01:35:19.888Z,99.90
2023-01-02T01:36:25.168Z,99.90
2023-01-02T01:37:27.706Z,99.90
2023-01-02T01:38:31.475Z,99.90
2023-01-02T01:39:34.025Z,99.90
2023-01-02T01:40:40.174Z,99.90
2023-01-02T01:41:43.238Z,99.90
2023-01-02T01:42:49.018Z,99.90
2023-01-02T01:43:58.611Z,99.90
2023-01-02T01:45:01.287Z,99.90
2023-01-02T01:46:07.518Z,99.90
2023-01-02T01:47:37.801Z,99.90
2023-01-02T01:48:40.323Z,99.90
2023-01-02T01:49:43.404Z,99.90
2023-01-02T01:50:46.358Z,99.90
2023-01-02T01:51:56.578Z,99.90
2023-01-02T01:53:10.136Z,99.90
2023-01-02T01:54:18.348Z,99.90
2023-01-02T01:55:43.840Z,99.90
2023-01-02T01:56:51.985Z,99.90
2023-01-02T01:58:02.641Z,99.90
2023-01-02T01:59:05.813Z,99.90
2023-01-02T02:00:09.635Z,99.90
2023-01-02T02:01:15.239Z,99.90
2023-01-02T02:02:18.545Z,99.90
2023-01-02T02:03:25.589Z,99.90
2023-01-02T02:04:28.381Z,99.90
2023-01-02T02:05:32.056Z,99.90
2023-01-02T02:06:36.402Z,99.90
2023-01-02T02:07:45.654Z,99.90
2023-01-02T02:09:36.008Z,99.90
2023-01-02T02:10:39.564Z,99.90
2023-01-02T02:11:42.935Z,99.90
2023-01-02T02:12:45.503Z,99.90
2023-01-02T02:13:49.812Z,99.90
2023-01-02T02:14:52.325Z,99.90
2023-01-02T02:16:10.235Z,99.90
2023-01-02T02:17:56.419Z,99.90
2023-01-02T02:19:39.999Z,99.90
2023-01-02T02:21:43.296Z,99.90
2023-01-02T02:23:21.882Z,99.90
2023-01-02T02:25:03.578Z,99.90
2023-01-02T02:26:33.723Z,99.90
2023-01-02T02:28:17.409Z,99.90
2023-01-02T02:30:12.626Z,99.90
2023-01-02T02:31:56.373Z,99.90
2023-01-02T02:33:27.062Z,99.90
2023-01-02T02:34:59.050Z,99.90
2023-01-02T02:36:39.799Z,99.90
2023-01-02T02:37:51.757Z,99.90
2023-01-02T02:39:25.665Z,99.90
2023-01-02T02:41:22.720Z,99.90
2023-01-02T02:42:55.104Z,99.90
2023-01-02T02:44:19.074Z,99.90
2023-01-02T02:45:48.504Z,99.90
2023-01-02T02:47:00.541Z,99.90
2023-01-02T02:48:07.783Z,99.90
2023-01-02T02:49:18.649Z,99.90
2023-01-02T02:50:42.434Z,99.90
2023-01-02T02:51:55.053Z,99.90
2023-01-02T02:53:21.325Z,99.90
2023-01-02T02:54:39.769Z,99.90
2023-01-02T02:55:52.552Z,99.90
2023-01-02T02:56:56.675Z,99.90
2023-01-02T02:58:00.528Z,99.90
2023-01-02T02:59:04.345Z,99.90
2023-01-02T03:00:11.025Z,99.90
2023-01-02T03:01:17.810Z,99.90
2023-01-02T03:02:21.264Z,99.90
2023-01-02T03:03:24.553Z,99.90
2023-01-02T03:04:27.168Z,99.90
2023-01-02T03:05:39.035Z,99.90
2023-01-02T03:07:14.985Z,99.90
2023-01-02T03:08:32.975Z,99.90
2023-01-02T03:10:23.000Z,99.90
2023-01-02T03:11:49.242Z,99.90
2023-01-02T03:13:22.695Z,99.90
2023-01-02T03:14:33.523Z,99.90
2023-01-02T03:16:07.826Z,99.90
2023-01-02T03:17:35.381Z,99.90
2023-01-02T03:18:52.489Z,99.90
2023-01-02T03:20:02.272Z,99.90
2023-01-02T03:21:50.289Z,99.90
2023-01-02T03:23:00.991Z,99.90
2023-01-02T03:24:08.780Z,99.90
2023-01-02T03:25:13.068Z,99.90
2023-01-02T03:26:20.904Z,99.90
2023-01-02T03:27:28.474Z,99.90
2023-01-02T03:28:32.825Z,99.90
2023-01-02T03:29:46.634Z,99.90
2023-01-02T03:30:53.927Z,99.90
2023-01-02T03:31:58.133Z,99.90
2023-01-02T03:33:18.500Z,99.90
2023-01-02T03:34:25.949Z,99.90
2023-01-02T03:35:35.821Z,99.90
2023-01-02T03:36:41.681Z,99.90
2023-01-02T03:37:51.757Z,99.90
2023-01-02T03:39:09.008Z,99.90
2023-01-02T03:40:18.770Z,99.90
2023-01-02T03:41:29.803Z,99.90
2023-01-02T03:43:02.261Z,99.90
2023-01-02T03:44:09.305Z,99.90
2023-01-02T03:45:33.100Z,99.90
2023-01-02T03:46:43.343Z,99.90
2023-01-02T03:48:14.681Z,99.90
2023-01-02T03:49:32.670Z,99.90
2023-01-02T03:50:44.903Z,99.90
2023-01-02T03:51:47.542Z,99.90
2023-01-02T03:52:50.337Z,99.90
2023-01-02T03:53:54.283Z,99.90
2023-01-02T03:54:58.109Z,99.90
2023-01-02T03:56:38.501Z,99.90
2023-01-02T03:57:56.824Z,99.90
2023-01-02T03:59:23.429Z,99.90
2023-01-02T04:00:36.955Z,99.90
2023-01-02T04:02:16.585Z,99.90
2023-01-02T04:03:35.105Z,99.90
2023-01-02T04:04:51.493Z,99.90
2023-01-02T04:06:11.581Z,99.90
2023-01-02T04:07:28.985Z,99.90
2023-01-02T04:09:00.842Z,99.90
2023-01-02T04:10:06.692Z,99.90
2023-01-02T04:11:09.853Z,99.90
2023-01-02T04:12:16.812Z,99.90
2023-01-02T04:13:26.897Z,99.90
2023-01-02T04:14:37.079Z,99.90
2023-01-02T04:15:41.882Z,99.90
2023-01-02T04:16:45.979Z,99.90
2023-01-02T04:18:12.035Z,99.90
2023-01-02T04:19:31.757Z,99.90
2023-01-02T04:20:42.335Z,99.90
2023-01-02T04:21:48.886Z,99.90
2023-01-02T04:23:11.475Z,99.90
2023-01-02T04:24:19.936Z,99.90
2023-01-02T04:25:31.734Z,99.90
2023-01-02T04:26:45.733Z,99.90
2023-01-02T04:27:57.889Z,99.90
2023-01-02T04:29:00.570Z,99.90
2023-01-02T04:30:03.699Z,99.90
2023-01-02T04:31:48.653Z,99.90
2023-01-02T04:32:51.883Z,99.90
2023-01-02T04:33:59.402Z,99.90
2023-01-02T04:35:07.275Z,99.90
2023-01-02T04:36:12.261Z,99.90
2023-01-02T04:37:38.210Z,99.90
2023-01-02T04:38:43.011Z,99.90
2023-01-02T04:39:45.915Z,99.90
2023-01-02T04:40:49.332Z,99.90
2023-01-02T04:41:51.965Z,99.90
2023-01-02T04:42:55.163Z,99.90
2023-01-02T04:43:58.147Z,99.90
2023-01-02T04:45:00.768Z,99.90
2023-01-02T04:46:03.632Z,99.90
2023-01-02T04:47:06.209Z,99.90
2023-01-02T04:48:08.808Z,99.90
2023-01-02T04:49:13.335Z,99.90
2023-01-02T04:50:16.410Z,99.90
2023-01-02T04:51:19.012Z,99.90
2023-01-02T04:52:21.586Z,99.90
2023-01-02T04:53:24.185Z,99.90
2023-01-02T04:54:26.712Z,99.90
2023-01-02T04:55:29.289Z,99.90
2023-01-02T04:56:31.848Z,99.90
2023-01-02T04:57:34.589Z,99.90
2023-01-02T04:58:37.172Z,99.90
2023-01-02T04:59:39.739Z,99.90
2023-01-02T05:00:42.312Z,99.90
2023-01-02T05:01:45.091Z,99.90
2023-01-02T05:02:48.812Z,99.90
2023-01-02T05:03:52.937Z,99.90
2023-01-02T05:04:55.663Z,99.90
2023-01-02T05:06:01.954Z,99.90
2023-01-02T05:07:06.000Z,99.90
2023-01-02T05:08:15.654Z,99.90
2023-01-02T05:09:18.823Z,99.90
2023-01-02T05:10:21.604Z,99.90
2023-01-02T05:11:24.161Z,99.90
2023-01-02T05:12:26.714Z,99.90
2023-01-02T05:13:29.314Z,99.90
2023-01-02T05:14:31.876Z,99.90
2023-01-02T05:15:34.429Z,99.90
2023-01-02T05:16:36.979Z,99.90
2023-01-02T05:17:42.017Z,99.90
2023-01-02T05:18:44.612Z,99.90
2023-01-02T05:19:47.528Z,99.90
2023-01-02T05:20:50.067Z,99.90
2023-01-02T05:22:12.035Z,99.90
2023-01-02T05:23:32.805Z,99.90
2023-01-02T05:24:35.369Z,99.90
2023-01-02T05:25:37.966Z,99.90
2023-01-02T05:26:40.509Z,99.90
2023-01-02T05:27:43.114Z,99.90
2023-01-02T05:28:45.936Z,99.90
2023-01-02T05:29:48.510Z,99.90
2023-01-02T05:30:51.189Z,99.90
2023-01-02T05:31:53.778Z,99.90
2023-01-02T05:32:56.336Z,99.90
2023-01-02T05:33:59.564Z,99.90
2023-01-02T05:35:02.355Z,99.90
2023-01-02T05:36:09.118Z,99.90
2023-01-02T05:37:11.861Z,99.90
2023-01-02T05:38:14.484Z,99.90
2023-01-02T05:39:17.050Z,99.90
2023-01-02T05:40:19.570Z,99.90
2023-01-02T05:41:23.504Z,99.90
2023-01-02T05:42:26.989Z,99.90
2023-01-02T05:43:34.774Z,99.90
2023-01-02T05:44:37.414Z,99.90
2023-01-02T05:45:39.924Z,99.90
2023-01-02T05:46:42.551Z,99.90
2023-01-02T05:47:45.332Z,99.90
2023-01-02T05:48:48.458Z,99.90
2023-01-02T05:49:50.964Z,99.90
2023-01-02T05:50:53.589Z,99.90
2023-01-02T05:51:56.213Z,99.90
2023-01-02T05:52:58.830Z,99.90
2023-01-02T05:54:01.791Z,99.80
2023-01-02T05:55:04.854Z,99.80
2023-01-02T05:56:13.551Z,99.80
2023-01-02T05:57:16.199Z,99.70
2023-01-02T05:58:18.791Z,99.70
2023-01-02T05:59:21.333Z,99.60
2023-01-02T06:00:23.854Z,99.70
2023-01-02T06:01:29.797Z,99.70
2023-01-02T06:02:33.978Z,99.70
2023-01-02T06:03:36.946Z,99.60
2023-01-02T06:04:39.617Z,99.50
2023-01-02T06:05:42.209Z,99.50
2023-01-02T06:06:45.113Z,99.50
2023-01-02T06:07:47.753Z,99.50
2023-01-02T06:08:50.596Z,99.50
2023-01-02T06:09:53.111Z,99.60
2023-01-02T06:10:55.670Z,99.40
2023-01-02T06:11:58.224Z,99.40
2023-01-02T06:13:00.771Z,99.40
2023-01-02T06:14:03.346Z,99.30
2023-01-02T06:15:06.427Z,99.20
2023-01-02T06:16:10.870Z,99.20
2023-01-02T06:17:13.487Z,99.10
2023-01-02T06:18:16.013Z,99.10
2023-01-02T06:19:18.533Z,99.10
2023-01-02T06:20:22.046Z,99.00
2023-01-02T06:21:24.736Z,99.00
2023-01-02T06:22:27.295Z,99.00
2023-01-02T06:23:29.987Z,98.90
2023-01-02T06:24:33.432Z,98.80
2023-01-02T06:25:35.965Z,98.90
2023-01-02T06:26:38.552Z,98.90
2023-01-02T06:27:41.145Z,98.90
2023-01-02T06:28:45.617Z,98.80
2023-01-02T06:29:48.138Z,98.80
2023-01-02T06:30:50.810Z,98.80
2023-01-02T06:31:53.430Z,98.70
2023-01-02T06:32:59.214Z,98.60
2023-01-02T06:34:04.200Z,98.70
2023-01-02T06:35:07.166Z,98.60
2023-01-02T06:36:13.064Z,98.60
2023-01-02T06:37:15.583Z,98.60
2023-01-02T06:38:18.129Z,98.60
2023-01-02T06:39:20.683Z,98.60
2023-01-02T06:40:23.201Z,98.50
2023-01-02T06:41:26.053Z,98.80
2023-01-02T06:42:29.972Z,98.40
2023-01-02T06:43:33.771Z,98.70
2023-01-02T06:44:36.690Z,98.30
2023-01-02T06:45:39.208Z,98.30
2023-01-02T06:46:42.070Z,98.30
2023-01-02T06:47:44.634Z,98.30
2023-01-02T06:48:48.778Z,98.20
2023-01-02T06:49:52.088Z,98.20
2023-01-02T06:50:55.022Z,98.20
2023-01-02T06:51:57.567Z,98.20
2023-01-02T06:53:00.143Z,98.20
2023-01-02T06:54:02.704Z,98.20
2023-01-02T06:55:05.875Z,98.20
2023-01-02T06:56:10.037Z,98.30
2023-01-02T06:57:12.654Z,98.20
2023-01-02T06:58:19.373Z,98.20
2023-01-02T06:59:22.216Z,98.20
2023-01-02T07:00:24.819Z,98.20
2023-01-02T07:01:27.531Z,98.30
2023-01-02T07:02:30.250Z,98.20
2023-01-02T07:03:32.914Z,98.20
2023-01-02T07:04:35.481Z,98.20
2023-01-02T07:05:38.098Z,98.20
2023-01-02T07:06:40.609Z,98.20
2023-01-02T07:07:43.718Z,98.20
2023-01-02T07:08:46.975Z,98.10
2023-01-02T07:09:49.488Z,98.10
2023-01-02T07:10:53.177Z,98.10
2023-01-02T07:11:56.053Z,98.10
2023-01-02T07:12:58.663Z,98.30
2023-01-02T07:14:01.846Z,98.10
2023-01-02T07:15:06.841Z,98.10
2023-01-02T07:16:13.573Z,98.00
2023-01-02T07:17:16.254Z,98.00
2023-01-02T07:18:18.844Z,98.00
2023-01-02T07:19:21.409Z,98.00
2023-01-02T07:20:24.026Z,98.00
2023-01-02T07:21:26.577Z,98.00
2023-01-02T07:22:29.147Z,97.90
2023-01-02T07:23:32.455Z,97.90
2023-01-02T07:24:35.082Z,97.90
2023-01-02T07:25:44.066Z,97.80
2023-01-02T07:26:47.045Z,97.70
2023-01-02T07:27:49.661Z,97.60
2023-01-02T07:28:52.259Z,97.60
2023-01-02T07:29:54.990Z,97.50
2023-01-02T07:31:04.043Z,97.50
2023-01-02T07:32:06.645Z,97.40
2023-01-02T07:33:09.227Z,97.40
2023-01-02T07:34:13.133Z,97.40
2023-01-02T07:35:15.695Z,97.40
2023-01-02T07:36:19.870Z,97.50
2023-01-02T07:37:22.513Z,97.40
2023-01-02T07:38:25.568Z,97.30
2023-01-02T07:39:28.109Z,97.30
2023-01-02T07:40:32.448Z,97.20
2023-01-02T07:41:36.149Z,97.20
2023-01-02T07:42:48.611Z,97.20
2023-01-02T07:43:54.124Z,97.20
2023-01-02T07:44:58.097Z,97.50
2023-01-02T07:46:04.743Z,97.20
2023-01-02T07:47:07.535Z,97.20
2023-01-02T07:48:10.067Z,97.20
2023-01-02T07:49:12.989Z,97.10
2023-01-02T07:50:15.644Z,97.10
2023-01-02T07:51:26.314Z,97.00
2023-01-02T07:52:31.005Z,97.00
2023-01-02T07:53:34.592Z,96.90
2023-01-02T07:54:37.680Z,96.90
2023-01-02T07:55:40.279Z,97.00
2023-01-02T07:56:43.133Z,96.90
2023-01-02T07:57:48.275Z,97.00
2023-01-02T07:58:51.396Z,96.90
2023-01-02T07:59:53.959Z,96.90
2023-01-02T08:01:03.290Z,97.00
2023-01-02T08:02:11.179Z,97.00
2023-01-02T08:03:13.833Z,97.00
2023-01-02T08:04:16.624Z,97.00
2023-01-02T08:05:19.443Z,97.00
2023-01-02T08:06:22.113Z,97.00
2023-01-02T08:07:24.721Z,97.00
2023-01-02T08:08:27.181Z,97.00
2023-01-02T08:09:29.961Z,96.90
2023-01-02T08:10:32.583Z,96.90
2023-01-02T08:11:35.380Z,96.90
2023-01-02T08:12:38.067Z,96.80
2023-01-02T08:13:41.279Z,96.80
2023-01-02T08:14:43.827Z,96.70
2023-01-02T08:15:46.592Z,96.70
2023-01-02T08:16:49.174Z,96.70
2023-01-02T08:17:52.306Z,96.70
2023-01-02T08:18:55.868Z,96.60
2023-01-02T08:20:04.843Z,96.60
2023-01-02T08:21:11.047Z,96.50
2023-01-02T08:22:13.678Z,96.40
2023-01-02T08:23:16.228Z,96.50
2023-01-02T08:24:18.799Z,96.40
2023-01-02T08:25:21.326Z,96.30
2023-01-02T08:26:24.095Z,96.30
2023-01-02T08:27:26.675Z,96.20
2023-01-02T08:28:30.201Z,96.10
2023-01-02T08:29:33.159Z,96.10
2023-01-02T08:30:35.738Z,96.10
2023-01-02T08:31:43.524Z,96.20
2023-01-02T08:32:46.566Z,96.00
2023-01-02T08:33:49.269Z,96.00
2023-01-02T08:34:54.142Z,95.90
2023-01-02T08:35:56.783Z,95.80
2023-01-02T08:36:59.622Z,95.80
2023-01-02T08:38:02.161Z,95.80
2023-01-02T08:39:04.793Z,95.70
2023-01-02T08:40:07.988Z,95.70
2023-01-02T08:41:10.778Z,95.70
2023-01-02T08:42:13.474Z,95.60
2023-01-02T08:43:16.386Z,95.50
2023-01-02T08:44:19.000Z,95.40
2023-01-02T08:45:21.616Z,95.40
2023-01-02T08:46:24.301Z,95.40
2023-01-02T08:47:26.868Z,95.40
2023-01-02T08:48:29.442Z,95.30
2023-01-02T08:49:32.009Z,95.30
2023-01-02T08:50:34.654Z,95.30
2023-01-02T08:51:37.192Z,95.20
2023-01-02T08:52:40.556Z,95.20
2023-01-02T08:53:43.197Z,95.20
2023-01-02T08:54:45.746Z,95.10
2023-01-02T08:55:48.261Z,95.00
2023-01-02T08:56:51.077Z,95.00
2023-01-02T08:57:53.818Z,95.00
2023-01-02T08:59:04.893Z,94.90
2023-01-02T09:00:08.615Z,94.80
2023-01-02T09:01:11.232Z,94.60
2023-01-02T09:02:15.352Z,94.60
2023-01-02T09:03:18.055Z,94.60
2023-01-02T09:04:21.163Z,94.60
2023-01-02T09:05:23.709Z,94.50
2023-01-02T09:06:28.495Z,94.50
2023-01-02T09:07:33.771Z,94.40
2023-01-02T09:08:36.394Z,94.30
2023-01-02T09:09:39.082Z,94.30
2023-01-02T09:10:41.747Z,94.20
2023-01-02T09:11:53.551Z,94.10
2023-01-02T09:12:56.196Z,94.10
2023-01-02T09:14:00.816Z,94.00
2023-01-02T09:15:04.932Z,93.90
2023-01-02T09:16:08.555Z,93.80
2023-01-02T09:17:11.285Z,93.80
2023-01-02T09:18:13.792Z,93.60
2023-01-02T09:19:16.967Z,93.50
2023-01-02T09:20:19.715Z,93.40
2023-01-02T09:21:22.517Z,93.20
2023-01-02T09:22:25.049Z,93.20
2023-01-02T09:23:30.340Z,93.10
2023-01-02T09:24:32.923Z,93.00
2023-01-02T09:25:35.438Z,93.00
2023-01-02T09:26:38.220Z,93.00
2023-01-02T09:27:40.865Z,92.90
2023-01-02T09:28:44.189Z,92.80
2023-01-02T09:29:46.786Z,92.80
2023-01-02T09:30:49.369Z,92.70
2023-01-02T09:31:51.956Z,92.60
2023-01-02T09:32:54.821Z,92.60
2023-01-02T09:33:57.385Z,92.90
2023-01-02T09:34:59.970Z,92.60
2023-01-02T09:36:07.949Z,92.60
2023-01-02T09:37:10.501Z,92.60
2023-01-02T09:38:13.195Z,92.50
2023-01-02T09:39:15.963Z,92.50
2023-01-02T09:40:18.724Z,92.50
2023-01-02T09:41:32.666Z,92.60
2023-01-02T09:42:35.396Z,92.60
2023-01-02T09:43:44.966Z,92.60
2023-01-02T09:44:55.620Z,92.50
2023-01-02T09:46:00.521Z,92.30
2023-01-02T09:47:06.449Z,92.30
2023-01-02T09:48:17.089Z,92.20
2023-01-02T09:49:30.009Z,92.20
2023-01-02T09:50:32.741Z,92.10
2023-01-02T09:51:35.592Z,92.00
2023-01-02T09:52:43.476Z,91.90
2023-01-02T09:53:46.465Z,91.90
2023-01-02T09:54:49.189Z,91.90
2023-01-02T09:56:33.422Z,91.90
2023-01-02T09:58:05.642Z,91.80
2023-01-02T09:59:13.847Z,91.80
2023-01-02T10:00:21.442Z,91.80
2023-01-02T10:01:59.915Z,91.90
2023-01-02T10:03:41.229Z,91.90
2023-01-02T10:05:23.904Z,91.80
2023-01-02T10:06:40.144Z,91.80
2023-01-02T10:08:29.558Z,91.80
2023-01-02T10:09:39.624Z,91.90
2023-01-02T10:10:46.981Z,92.10
2023-01-02T10:12:39.462Z,92.10
2023-01-02T10:14:17.182Z,92.10
2023-01-02T10:15:13.881Z,92.10
2023-01-02T10:16:26.791Z,92.10
2023-01-02T10:17:34.868Z,92.00
2023-01-02T10:18:43.231Z,92.00
2023-01-02T10:19:59.560Z,92.00
2023-01-02T10:21:11.627Z,92.00
2023-01-02T10:22:20.338Z,92.10
2023-01-02T10:23:30.605Z,92.10
2023-01-02T10:25:02.052Z,92.10
2023-01-02T10:26:10.525Z,92.10
2023-01-02T10:27:19.549Z,92.00
2023-01-02T10:28:40.073Z,92.00
2023-01-02T10:29:54.096Z,91.90
2023-01-02T10:31:07.405Z,91.90
2023-01-02T10:32:19.648Z,91.80
2023-01-02T10:33:32.505Z,91.60
2023-01-02T10:34:45.033Z,91.60
2023-01-02T10:36:01.692Z,91.30
2023-01-02T10:37:15.113Z,91.10
2023-01-02T10:38:20.055Z,91.00
2023-01-02T10:39:28.137Z,91.00
2023-01-02T10:40:32.126Z,91.10
2023-01-02T10:41:35.421Z,91.10
2023-01-02T10:42:38.265Z,91.00
2023-01-02T10:43:40.802Z,91.00
2023-01-02T10:44:45.774Z,91.00
2023-01-02T10:45:48.364Z,91.00
2023-01-02T10:46:51.083Z,91.00
2023-01-02T10:47:53.682Z,91.00
2023-01-02T10:48:57.419Z,91.00
2023-01-02T10:50:01.021Z,91.00
2023-01-02T10:51:07.439Z,91.00
2023-01-02T10:52:36.233Z,90.90
2023-01-02T10:53:39.016Z,91.00
2023-01-02T10:54:58.968Z,90.90
2023-01-02T10:56:18.527Z,90.90
2023-01-02T10:57:46.326Z,90.90
2023-01-02T10:58:51.134Z,90.90
2023-01-02T10:59:58.622Z,90.90
2023-01-02T11:01:13.804Z,90.90
2023-01-02T11:02:37.061Z,90.90
2023-01-02T11:03:40.580Z,91.00
2023-01-02T11:04:43.454Z,91.00
2023-01-02T11:05:53.011Z,90.90
2023-01-02T11:07:02.721Z,91.00
2023-01-02T11:08:16.697Z,91.00
2023-01-02T11:09:23.710Z,91.10
2023-01-02T11:10:33.847Z,91.10
2023-01-02T11:11:36.425Z,91.10
2023-01-02T11:12:47.573Z,91.10
2023-01-02T11:13:55.136Z,91.20
2023-01-02T11:15:14.621Z,91.20
2023-01-02T11:16:18.670Z,91.20
2023-01-02T11:17:24.048Z,91.20
2023-01-02T11:18:31.086Z,91.20
2023-01-02T11:19:41.795Z,91.30
2023-01-02T11:20:51.034Z,91.30
2023-01-02T11:21:53.907Z,91.30
2023-01-02T11:22:59.536Z,91.30
2023-01-02T11:24:05.818Z,91.20
2023-01-02T11:25:22.901Z,91.10
2023-01-02T11:26:26.217Z,91.10
2023-01-02T11:27:33.362Z,91.10
2023-01-02T11:28:39.457Z,91.20
2023-01-02T11:29:48.054Z,91.30
2023-01-02T11:30:54.905Z,91.30
2023-01-02T11:32:01.964Z,91.20
2023-01-02T11:33:27.215Z,91.30
2023-01-02T11:34:40.036Z,91.40
2023-01-02T11:35:54.588Z,91.40
2023-01-02T11:37:11.940Z,91.50
2023-01-02T11:38:29.540Z,91.50
2023-01-02T11:39:35.095Z,91.40
2023-01-02T11:40:37.609Z,91.40
2023-01-02T11:42:16.422Z,91.50
2023-01-02T11:43:43.221Z,91.60
2023-01-02T11:44:56.278Z,91.70
2023-01-02T11:45:58.887Z,91.90
2023-01-02T11:47:04.082Z,92.00
2023-01-02T11:48:16.326Z,92.00
2023-01-02T11:49:24.385Z,92.10
2023-01-02T11:50:39.075Z,92.10
2023-01-02T11:51:42.767Z,92.10
2023-01-02T11:52:59.536Z,92.10
2023-01-02T11:54:10.388Z,92.10
2023-01-02T11:55:37.044Z,92.20
2023-01-02T11:56:44.048Z,92.10
2023-01-02T11:58:06.742Z,92.00
2023-01-02T11:59:26.507Z,91.90
2023-01-02T12:00:35.469Z,91.90
2023-01-02T12:02:16.377Z,91.80
2023-01-02T12:03:24.285Z,91.80
2023-01-02T12:04:27.185Z,91.80
2023-01-02T12:06:00.495Z,91.90
2023-01-02T12:07:38.428Z,91.90
2023-01-02T12:09:02.139Z,92.00
2023-01-02T12:11:17.692Z,91.90
2023-01-02T12:12:59.929Z,91.90
2023-01-02T12:14:15.396Z,91.80
2023-01-02T12:15:46.486Z,91.80
2023-01-02T12:17:20.842Z,91.80
2023-01-02T12:19:11.489Z,91.80
2023-01-02T12:20:44.408Z,91.90
2023-01-02T12:22:23.341Z,92.00
2023-01-02T12:23:49.585Z,92.00
2023-01-02T12:25:23.612Z,92.00
2023-01-02T12:26:44.405Z,91.80
2023-01-02T12:28:25.520Z,91.70
2023-01-02T12:29:46.604Z,91.40
2023-01-02T12:31:16.343Z,91.30
2023-01-02T12:32:52.736Z,91.30
2023-01-02T12:34:15.505Z,91.20
2023-01-02T12:35:55.491Z,91.00
2023-01-02T12:37:03.559Z,91.00
2023-01-02T12:38:11.211Z,91.00
2023-01-02T12:39:41.342Z,91.00
2023-01-02T12:40:50.046Z,91.00
2023-01-02T12:42:39.687Z,91.00
2023-01-02T12:44:26.049Z,91.10
2023-01-02T12:45:48.132Z,91.00
2023-01-02T12:47:30.896Z,91.00
2023-01-02T12:49:16.356Z,91.10
2023-01-02T12:50:49.245Z,91.40
2023-01-02T12:52:14.623Z,91.50
2023-01-02T12:54:18.890Z,91.70
2023-01-02T12:56:07.125Z,91.80
2023-01-02T12:57:31.186Z,92.00
2023-01-02T12:59:04.014Z,92.00
2023-01-02T13:00:31.127Z,92.00
2023-01-02T13:01:42.732Z,92.00
2023-01-02T13:03:16.998Z,92.00
2023-01-02T13:04:30.960Z,92.00
2023-01-02T13:05:48.250Z,91.80
2023-01-02T13:07:00.693Z,91.80
2023-01-02T13:08:16.679Z,91.80
2023-01-02T13:09:35.648Z,91.90
2023-01-02T13:10:39.336Z,91.90
2023-01-02T13:11:55.418Z,91.80
2023-01-02T13:12:59.351Z,91.80
2023-01-02T13:14:03.801Z,91.70
2023-01-02T13:15:24.929Z,91.70
2023-01-02T13:16:28.112Z,91.60
2023-01-02T13:17:57.914Z,91.60
2023-01-02T13:19:30.280Z,91.50
2023-01-02T13:20:57.512Z,91.50
2023-01-02T13:22:34.721Z,91.50
2023-01-02T13:23:47.051Z,91.50
2023-01-02T13:24:51.462Z,91.50
2023-01-02T13:26:11.293Z,91.60
2023-01-02T13:27:14.290Z,91.50
2023-01-02T13:28:18.864Z,91.60
2023-01-02T13:29:30.351Z,91.60
2023-01-02T13:30:40.236Z,91.60
2023-01-02T13:31:50.156Z,91.60
2023-01-02T13:32:52.853Z,91.70
2023-01-02T13:33:55.761Z,91.60
2023-01-02T13:35:02.481Z,91.80
2023-01-02T13:36:37.068Z,92.10
2023-01-02T13:37:43.180Z,92.10
2023-01-02T13:38:50.185Z,91.90
2023-01-02T13:39:57.522Z,92.00
2023-01-02T13:41:00.779Z,92.00
2023-01-02T13:42:23.921Z,92.10
2023-01-02T13:43:31.977Z,92.20
2023-01-02T13:44:41.651Z,92.30
2023-01-02T13:45:52.067Z,92.40
2023-01-02T13:47:03.747Z,92.40
2023-01-02T13:48:39.359Z,92.50
2023-01-02T13:49:42.547Z,92.60
2023-01-02T13:50:45.809Z,92.50
2023-01-02T13:51:48.547Z,92.60
2023-01-02T13:53:12.117Z,92.60
2023-01-02T13:54:21.176Z,92.60
2023-01-02T13:55:41.635Z,92.60
2023-01-02T13:57:30.150Z,92.70
2023-01-02T13:59:41.646Z,92.80
2023-01-02T14:00:54.745Z,92.80
2023-01-02T14:02:01.023Z,92.80
2023-01-02T14:03:21.850Z,92.90
2023-01-02T14:04:33.792Z,92.90
2023-01-02T14:05:58.095Z,92.90
2023-01-02T14:07:25.630Z,92.90
2023-01-02T14:08:34.600Z,92.90
2023-01-02T14:10:14.472Z,92.90
2023-01-02T14:11:31.661Z,92.90
2023-01-02T14:13:02.333Z,92.90
2023-01-02T14:14:13.545Z,92.90
2023-01-02T14:15:20.643Z,93.00
2023-01-02T14:16:23.265Z,92.90
2023-01-02T14:17:51.062Z,92.80
2023-01-02T14:19:15.221Z,93.10
2023-01-02T14:20:20.600Z,92.90
2023-01-02T14:21:35.332Z,92.80
2023-01-02T14:22:54.089Z,92.80
2023-01-02T14:24:18.123Z,92.80
2023-01-02T14:25:20.885Z,92.70
2023-01-02T14:26:28.954Z,92.70
2023-01-02T14:27:35.202Z,92.70
2023-01-02T14:28:39.935Z,92.60
2023-01-02T14:30:16.019Z,92.60
2023-01-02T14:31:34.057Z,92.60
2023-01-02T14:32:43.303Z,92.50
2023-01-02T14:33:54.446Z,92.40
2023-01-02T14:34:58.947Z,92.40
2023-01-02T14:36:12.215Z,92.40
2023-01-02T14:37:37.178Z,92.40
2023-01-02T14:38:54.464Z,92.40
2023-01-02T14:40:10.125Z,92.30
2023-01-02T14:42:11.067Z,92.40
2023-01-02T14:43:35.882Z,92.40
2023-01-02T14:44:46.489Z,92.30
2023-01-02T14:45:57.983Z,92.30
2023-01-02T14:47:03.247Z,92.40
2023-01-02T14:48:11.441Z,92.40
2023-01-02T14:49:25.560Z,92.30
2023-01-02T14:50:33.835Z,92.40
2023-01-02T14:51:42.114Z,92.40
2023-01-02T14:52:51.918Z,92.40
2023-01-02T14:53:59.228Z,92.40
2023-01-02T14:55:11.545Z,92.40
2023-01-02T14:56:22.015Z,92.40
2023-01-02T14:57:32.993Z,92.50
2023-01-02T14:58:42.467Z,92.50
2023-01-02T14:59:48.250Z,92.50
2023-01-02T15:00:51.594Z,92.50
2023-01-02T15:02:09.042Z,92.50